sensor_id;sensor_type;location;lat;lon;timestamp;pressure;altitude;pressure_sealevel;temperature;humidity
80482;BME280;69797;43.864;21.410;2023-05-07T00:00:39;100087.63;;;13.76;65.74
80482;BME280;69797;43.864;21.410;2023-05-07T00:03:11;100084.88;;;13.76;66.42
80482;BME280;69797;43.864;21.410;2023-05-07T00:05:39;100064.31;;;13.66;65.82
80482;BME280;69797;43.864;21.410;2023-05-07T00:08:06;100082.69;;;13.78;65.27
80482;BME280;69797;43.864;21.410;2023-05-07T00:10:33;100085.94;;;13.75;65.83
80482;BME280;69797;43.864;21.410;2023-05-07T00:13:00;100058.13;;;13.59;65.65
80482;BME280;69797;43.864;21.410;2023-05-07T00:15:26;100076.91;;;13.62;65.62
80482;BME280;69797;43.864;21.410;2023-05-07T00:17:55;100068.69;;;13.51;65.68
80482;BME280;69797;43.864;21.410;2023-05-07T00:20:22;100070.97;;;13.42;66.29
80482;BME280;69797;43.864;21.410;2023-05-07T00:22:49;100061.56;;;13.26;65.87
80482;BME280;69797;43.864;21.410;2023-05-07T00:25:15;100060.13;;;13.24;66.38
80482;BME280;69797;43.864;21.410;2023-05-07T00:27:42;100075.16;;;13.21;66.12
80482;BME280;69797;43.864;21.410;2023-05-07T00:30:10;100086.31;;;13.14;66.79
80482;BME280;69797;43.864;21.410;2023-05-07T00:32:38;100077.38;;;13.07;65.85
80482;BME280;69797;43.864;21.410;2023-05-07T00:35:05;100092.66;;;13.03;66.37
80482;BME280;69797;43.864;21.410;2023-05-07T00:37:32;100098.88;;;13.10;66.33
80482;BME280;69797;43.864;21.410;2023-05-07T00:39:59;100078.69;;;12.93;66.22
80482;BME280;69797;43.864;21.410;2023-05-07T00:42:26;100072.13;;;12.82;67.19
80482;BME280;69797;43.864;21.410;2023-05-07T00:44:54;100105.69;;;12.96;67.10
80482;BME280;69797;43.864;21.410;2023-05-07T00:47:21;100112.88;;;12.97;66.40
80482;BME280;69797;43.864;21.410;2023-05-07T00:49:48;100091.38;;;12.82;67.23
80482;BME280;69797;43.864;21.410;2023-05-07T00:52:16;100088.50;;;12.77;67.74
80482;BME280;69797;43.864;21.410;2023-05-07T00:54:44;100091.13;;;12.72;67.78
80482;BME280;69797;43.864;21.410;2023-05-07T00:57:14;100080.84;;;12.67;68.25
80482;BME280;69797;43.864;21.410;2023-05-07T00:59:41;100104.97;;;12.77;67.98
80482;BME280;69797;43.864;21.410;2023-05-07T01:02:08;100087.31;;;12.61;69.08
80482;BME280;69797;43.864;21.410;2023-05-07T01:04:35;100112.50;;;12.70;69.23
80482;BME280;69797;43.864;21.410;2023-05-07T01:07:03;100094.81;;;12.54;68.06
80482;BME280;69797;43.864;21.410;2023-05-07T01:09:31;100089.44;;;12.47;67.96
80482;BME280;69797;43.864;21.410;2023-05-07T01:11:58;100083.22;;;12.40;67.90
80482;BME280;69797;43.864;21.410;2023-05-07T01:14:26;100110.13;;;12.50;70.18
80482;BME280;69797;43.864;21.410;2023-05-07T01:16:53;100093.72;;;12.43;71.03
80482;BME280;69797;43.864;21.410;2023-05-07T01:19:20;100086.06;;;12.45;70.54
80482;BME280;69797;43.864;21.410;2023-05-07T01:21:48;100082.84;;;12.48;70.48
80482;BME280;69797;43.864;21.410;2023-05-07T01:24:15;100085.50;;;12.55;70.27
80482;BME280;69797;43.864;21.410;2023-05-07T01:26:43;100106.28;;;12.75;70.56
80482;BME280;69797;43.864;21.410;2023-05-07T01:29:11;100083.84;;;12.66;69.60
80482;BME280;69797;43.864;21.410;2023-05-07T01:31:39;100098.41;;;12.78;67.56
80482;BME280;69797;43.864;21.410;2023-05-07T01:34:09;100084.09;;;12.64;68.03
80482;BME280;69797;43.864;21.410;2023-05-07T01:36:38;100087.31;;;12.61;67.96
80482;BME280;69797;43.864;21.410;2023-05-07T01:39:07;100110.38;;;12.72;68.83
80482;BME280;69797;43.864;21.410;2023-05-07T01:41:35;100112.63;;;12.63;69.37
80482;BME280;69797;43.864;21.410;2023-05-07T01:44:03;100107.72;;;12.54;68.87
80482;BME280;69797;43.864;21.410;2023-05-07T01:46:31;100089.41;;;12.36;70.11
80482;BME280;69797;43.864;21.410;2023-05-07T01:48:58;100086.69;;;12.36;70.65
80482;BME280;69797;43.864;21.410;2023-05-07T01:51:25;100082.34;;;12.28;70.30
80482;BME280;69797;43.864;21.410;2023-05-07T01:53:53;100100.53;;;12.41;71.52
80482;BME280;69797;43.864;21.410;2023-05-07T01:56:20;100092.16;;;12.36;70.08
80482;BME280;69797;43.864;21.410;2023-05-07T01:58:47;100090.94;;;12.32;70.79
80482;BME280;69797;43.864;21.410;2023-05-07T02:01:14;100082.22;;;12.23;71.28
80482;BME280;69797;43.864;21.410;2023-05-07T02:03:41;100092.63;;;12.33;70.59
80482;BME280;69797;43.864;21.410;2023-05-07T02:06:08;100085.59;;;12.25;71.81
80482;BME280;69797;43.864;21.410;2023-05-07T02:08:35;100089.63;;;12.22;72.06
80482;BME280;69797;43.864;21.410;2023-05-07T02:11:02;100091.06;;;12.25;72.52
80482;BME280;69797;43.864;21.410;2023-05-07T02:13:31;100086.25;;;12.20;72.71
80482;BME280;69797;43.864;21.410;2023-05-07T02:15:58;100068.22;;;12.13;70.36
80482;BME280;69797;43.864;21.410;2023-05-07T02:18:25;100072.63;;;12.14;72.37
80482;BME280;69797;43.864;21.410;2023-05-07T02:20:52;100086.88;;;12.22;70.50
80482;BME280;69797;43.864;21.410;2023-05-07T02:23:18;100062.84;;;12.06;71.53
80482;BME280;69797;43.864;21.410;2023-05-07T02:25:45;100075.88;;;12.11;71.95
80482;BME280;69797;43.864;21.410;2023-05-07T02:28:13;100070.03;;;12.07;72.03
80482;BME280;69797;43.864;21.410;2023-05-07T02:30:40;100064.38;;;12.02;70.85
80482;BME280;69797;43.864;21.410;2023-05-07T02:33:07;100080.66;;;12.15;70.08
80482;BME280;69797;43.864;21.410;2023-05-07T02:35:35;100039.41;;;11.92;69.89
80482;BME280;69797;43.864;21.410;2023-05-07T02:38:02;100052.66;;;11.95;70.86
80482;BME280;69797;43.864;21.410;2023-05-07T02:40:29;100070.47;;;12.04;70.54
80482;BME280;69797;43.864;21.410;2023-05-07T02:42:56;100057.19;;;11.89;70.41
80482;BME280;69797;43.864;21.410;2023-05-07T02:45:22;100081.09;;;12.00;70.32
80482;BME280;69797;43.864;21.410;2023-05-07T02:47:49;100062.53;;;11.84;70.39
80482;BME280;69797;43.864;21.410;2023-05-07T02:50:16;100059.63;;;11.79;71.20
80482;BME280;69797;43.864;21.410;2023-05-07T02:52:45;100085.16;;;11.80;70.67
80482;BME280;69797;43.864;21.410;2023-05-07T02:55:13;100086.09;;;11.73;71.27
80482;BME280;69797;43.864;21.410;2023-05-07T02:57:40;100064.63;;;11.52;70.56
80482;BME280;69797;43.864;21.410;2023-05-07T03:00:17;100086.38;;;11.53;71.92
80482;BME280;69797;43.864;21.410;2023-05-07T03:02:45;100092.38;;;11.44;72.83
80482;BME280;69797;43.864;21.410;2023-05-07T03:05:11;100081.44;;;11.25;73.65
80482;BME280;69797;43.864;21.410;2023-05-07T03:07:39;100086.28;;;11.23;73.62
80482;BME280;69797;43.864;21.410;2023-05-07T03:10:06;100083.69;;;11.10;73.71
80482;BME280;69797;43.864;21.410;2023-05-07T03:12:32;100119.91;;;11.19;73.86
80482;BME280;69797;43.864;21.410;2023-05-07T03:14:59;100105.25;;;11.07;73.76
80482;BME280;69797;43.864;21.410;2023-05-07T03:17:26;100098.53;;;11.02;74.05
80482;BME280;69797;43.864;21.410;2023-05-07T03:19:53;100101.53;;;11.01;74.14
80482;BME280;69797;43.864;21.410;2023-05-07T03:22:22;100117.91;;;11.08;74.30
80482;BME280;69797;43.864;21.410;2023-05-07T03:24:48;100119.81;;;11.07;74.42
80482;BME280;69797;43.864;21.410;2023-05-07T03:27:15;100098.47;;;10.91;74.58
80482;BME280;69797;43.864;21.410;2023-05-07T03:29:42;100109.31;;;11.04;75.16
80482;BME280;69797;43.864;21.410;2023-05-07T03:32:09;100119.13;;;11.12;73.68
80482;BME280;69797;43.864;21.410;2023-05-07T03:34:35;100101.22;;;11.09;73.40
80482;BME280;69797;43.864;21.410;2023-05-07T03:37:02;100106.81;;;11.39;73.67
80482;BME280;69797;43.864;21.410;2023-05-07T03:39:29;100106.81;;;11.69;72.16
80482;BME280;69797;43.864;21.410;2023-05-07T03:41:57;100103.06;;;12.00;70.80
80482;BME280;69797;43.864;21.410;2023-05-07T03:44:24;100103.63;;;12.33;70.40
80482;BME280;69797;43.864;21.410;2023-05-07T03:46:51;100098.41;;;12.66;68.56
80482;BME280;69797;43.864;21.410;2023-05-07T03:49:18;100102.81;;;13.14;67.42
80482;BME280;69797;43.864;21.410;2023-05-07T03:51:45;100127.94;;;13.82;65.63
80482;BME280;69797;43.864;21.410;2023-05-07T03:54:12;100127.13;;;14.27;64.23
80482;BME280;69797;43.864;21.410;2023-05-07T03:56:38;100101.78;;;14.75;62.48
80482;BME280;69797;43.864;21.410;2023-05-07T03:59:05;100138.97;;;15.45;60.97
80482;BME280;69797;43.864;21.410;2023-05-07T04:01:32;100121.66;;;15.72;59.02
80482;BME280;69797;43.864;21.410;2023-05-07T04:03:59;100112.63;;;16.03;59.15
80482;BME280;69797;43.864;21.410;2023-05-07T04:06:25;100135.84;;;16.89;57.46
80482;BME280;69797;43.864;21.410;2023-05-07T04:08:52;100114.59;;;17.42;54.89
80482;BME280;69797;43.864;21.410;2023-05-07T04:11:19;100133.09;;;17.89;54.31
80482;BME280;69797;43.864;21.410;2023-05-07T04:13:49;100134.25;;;18.08;52.91
80482;BME280;69797;43.864;21.410;2023-05-07T04:16:15;100123.22;;;18.29;52.76
80482;BME280;69797;43.864;21.410;2023-05-07T04:18:45;100136.59;;;18.83;52.51
80482;BME280;69797;43.864;21.410;2023-05-07T04:21:17;100149.53;;;19.69;51.63
80482;BME280;69797;43.864;21.410;2023-05-07T04:23:44;100159.28;;;20.71;49.03
80482;BME280;69797;43.864;21.410;2023-05-07T04:26:11;100148.38;;;21.38;48.52
80482;BME280;69797;43.864;21.410;2023-05-07T04:28:41;100154.44;;;21.93;49.40
80482;BME280;69797;43.864;21.410;2023-05-07T04:31:08;100151.88;;;22.58;46.52
80482;BME280;69797;43.864;21.410;2023-05-07T04:33:35;100160.41;;;23.18;44.10
80482;BME280;69797;43.864;21.410;2023-05-07T04:36:04;100156.63;;;23.56;42.53
80482;BME280;69797;43.864;21.410;2023-05-07T04:38:31;100158.63;;;23.97;45.82
80482;BME280;69797;43.864;21.410;2023-05-07T04:41:03;100165.44;;;24.68;42.81
80482;BME280;69797;43.864;21.410;2023-05-07T04:43:30;100164.66;;;25.21;43.71
80482;BME280;69797;43.864;21.410;2023-05-07T04:45:57;100178.38;;;25.85;43.33
80482;BME280;69797;43.864;21.410;2023-05-07T04:48:24;100172.06;;;26.19;41.51
80482;BME280;69797;43.864;21.410;2023-05-07T04:50:51;100151.25;;;26.38;41.47
80482;BME280;69797;43.864;21.410;2023-05-07T04:53:18;100154.09;;;26.64;40.88
80482;BME280;69797;43.864;21.410;2023-05-07T04:55:45;100160.53;;;26.99;41.05
80482;BME280;69797;43.864;21.410;2023-05-07T04:58:12;100153.44;;;27.19;42.17
80482;BME280;69797;43.864;21.410;2023-05-07T05:00:39;100176.31;;;27.56;40.92
80482;BME280;69797;43.864;21.410;2023-05-07T05:03:06;100162.34;;;27.77;38.21
80482;BME280;69797;43.864;21.410;2023-05-07T05:05:34;100165.69;;;28.29;39.91
80482;BME280;69797;43.864;21.410;2023-05-07T05:08:03;100177.44;;;29.03;39.52
80482;BME280;69797;43.864;21.410;2023-05-07T05:10:29;100175.72;;;29.68;38.66
80482;BME280;69797;43.864;21.410;2023-05-07T05:12:56;100172.69;;;30.10;39.27
80482;BME280;69797;43.864;21.410;2023-05-07T05:15:23;100160.69;;;30.38;33.20
80482;BME280;69797;43.864;21.410;2023-05-07T05:17:50;100167.31;;;30.70;37.61
80482;BME280;69797;43.864;21.410;2023-05-07T05:20:17;100170.03;;;31.06;36.16
80482;BME280;69797;43.864;21.410;2023-05-07T05:22:43;100167.59;;;30.93;36.21
80482;BME280;69797;43.864;21.410;2023-05-07T05:25:10;100166.00;;;31.08;35.70
80482;BME280;69797;43.864;21.410;2023-05-07T05:27:37;100173.84;;;30.98;35.86
80482;BME280;69797;43.864;21.410;2023-05-07T05:30:07;100167.31;;;31.10;35.76
80482;BME280;69797;43.864;21.410;2023-05-07T05:32:34;100148.78;;;31.13;35.32
80482;BME280;69797;43.864;21.410;2023-05-07T05:35:01;100152.78;;;31.56;35.21
80482;BME280;69797;43.864;21.410;2023-05-07T05:37:28;100154.94;;;32.25;31.45
80482;BME280;69797;43.864;21.410;2023-05-07T05:39:56;100165.47;;;32.60;33.62
80482;BME280;69797;43.864;21.410;2023-05-07T05:42:23;100156.59;;;32.62;33.41
80482;BME280;69797;43.864;21.410;2023-05-07T05:44:50;100166.84;;;33.05;33.86
80482;BME280;69797;43.864;21.410;2023-05-07T05:47:17;100144.81;;;33.60;29.68
80482;BME280;69797;43.864;21.410;2023-05-07T05:49:43;100158.72;;;34.15;32.68
80482;BME280;69797;43.864;21.410;2023-05-07T05:52:13;100155.97;;;34.22;32.01
80482;BME280;69797;43.864;21.410;2023-05-07T05:54:40;100150.00;;;34.04;29.99
80482;BME280;69797;43.864;21.410;2023-05-07T05:57:09;100158.25;;;34.13;31.82
80482;BME280;69797;43.864;21.410;2023-05-07T05:59:36;100153.56;;;34.51;31.87
80482;BME280;69797;43.864;21.410;2023-05-07T06:02:03;100164.16;;;34.84;30.86
80482;BME280;69797;43.864;21.410;2023-05-07T06:04:30;100146.56;;;35.05;30.82
80482;BME280;69797;43.864;21.410;2023-05-07T06:06:59;100154.31;;;35.08;30.11
80482;BME280;69797;43.864;21.410;2023-05-07T06:09:26;100156.53;;;35.25;30.50
80482;BME280;69797;43.864;21.410;2023-05-07T06:11:55;100145.63;;;35.72;29.80
80482;BME280;69797;43.864;21.410;2023-05-07T06:14:25;100164.06;;;36.40;27.96
80482;BME280;69797;43.864;21.410;2023-05-07T06:16:51;100150.75;;;36.59;28.23
80482;BME280;69797;43.864;21.410;2023-05-07T06:19:18;100140.59;;;36.65;28.38
80482;BME280;69797;43.864;21.410;2023-05-07T06:21:49;100148.97;;;37.24;28.44
80482;BME280;69797;43.864;21.410;2023-05-07T06:24:16;100142.91;;;37.75;27.04
80482;BME280;69797;43.864;21.410;2023-05-07T06:26:45;100133.53;;;38.07;26.86
80482;BME280;69797;43.864;21.410;2023-05-07T06:29:12;100144.16;;;38.06;27.32
80482;BME280;69797;43.864;21.410;2023-05-07T06:31:38;100144.16;;;37.81;27.21
80482;BME280;69797;43.864;21.410;2023-05-07T06:34:05;100153.56;;;37.89;26.34
80482;BME280;69797;43.864;21.410;2023-05-07T06:36:32;100133.13;;;37.48;27.20
80482;BME280;69797;43.864;21.410;2023-05-07T06:38:59;100130.22;;;37.33;27.00
80482;BME280;69797;43.864;21.410;2023-05-07T06:41:26;100141.28;;;37.45;26.76
80482;BME280;69797;43.864;21.410;2023-05-07T06:43:52;100148.25;;;37.59;26.45
80482;BME280;69797;43.864;21.410;2023-05-07T06:46:19;100146.63;;;37.54;25.94
80482;BME280;69797;43.864;21.410;2023-05-07T06:48:46;100158.91;;;37.90;26.75
80482;BME280;69797;43.864;21.410;2023-05-07T06:51:13;100151.50;;;38.18;25.41
80482;BME280;69797;43.864;21.410;2023-05-07T06:53:39;100150.66;;;38.39;25.36
80482;BME280;69797;43.864;21.410;2023-05-07T06:56:07;100156.28;;;38.71;25.71
80482;BME280;69797;43.864;21.410;2023-05-07T06:58:34;100152.50;;;38.99;25.54
80482;BME280;69797;43.864;21.410;2023-05-07T07:01:01;100125.72;;;39.34;24.41
80482;BME280;69797;43.864;21.410;2023-05-07T07:03:33;100132.38;;;39.14;22.67
80482;BME280;69797;43.864;21.410;2023-05-07T07:06:00;100136.13;;;39.00;23.76
80482;BME280;69797;43.864;21.410;2023-05-07T07:08:28;100132.44;;;39.03;24.68
80482;BME280;69797;43.864;21.410;2023-05-07T07:10:55;100125.69;;;39.90;24.49
80482;BME280;69797;43.864;21.410;2023-05-07T07:13:21;100145.34;;;40.37;23.69
80482;BME280;69797;43.864;21.410;2023-05-07T07:15:51;100123.59;;;40.39;23.42
80482;BME280;69797;43.864;21.410;2023-05-07T07:18:19;100120.03;;;40.66;23.39
80482;BME280;69797;43.864;21.410;2023-05-07T07:20:46;100128.84;;;41.13;22.57
80482;BME280;69797;43.864;21.410;2023-05-07T07:23:13;100133.34;;;41.44;22.15
80482;BME280;69797;43.864;21.410;2023-05-07T07:25:40;100137.22;;;41.58;22.70
80482;BME280;69797;43.864;21.410;2023-05-07T07:28:10;100140.75;;;41.92;22.27
80482;BME280;69797;43.864;21.410;2023-05-07T07:30:40;100139.78;;;42.23;21.86
80482;BME280;69797;43.864;21.410;2023-05-07T07:33:07;100142.94;;;42.32;21.77
80482;BME280;69797;43.864;21.410;2023-05-07T07:35:34;100142.06;;;42.55;21.78
80482;BME280;69797;43.864;21.410;2023-05-07T07:38:00;100138.91;;;42.49;21.27
80482;BME280;69797;43.864;21.410;2023-05-07T07:40:27;100127.22;;;42.96;21.42
80482;BME280;69797;43.864;21.410;2023-05-07T07:42:57;100145.41;;;43.29;20.49
80482;BME280;69797;43.864;21.410;2023-05-07T07:45:27;100134.22;;;43.15;20.81
80482;BME280;69797;43.864;21.410;2023-05-07T07:47:54;100133.78;;;43.17;20.78
80482;BME280;69797;43.864;21.410;2023-05-07T07:50:21;100127.16;;;43.36;20.32
80482;BME280;69797;43.864;21.410;2023-05-07T07:53:08;100131.16;;;43.75;20.45
80482;BME280;69797;43.864;21.410;2023-05-07T07:55:39;100125.56;;;44.00;18.68
80482;BME280;69797;43.864;21.410;2023-05-07T07:58:06;100118.50;;;44.18;20.18
80482;BME280;69797;43.864;21.410;2023-05-07T08:00:33;100124.56;;;44.07;19.76
80482;BME280;69797;43.864;21.410;2023-05-07T08:03:00;100113.81;;;44.08;19.87
80482;BME280;69797;43.864;21.410;2023-05-07T08:05:27;100117.28;;;44.02;19.41
80482;BME280;69797;43.864;21.410;2023-05-07T08:07:54;100122.84;;;43.77;19.84
80482;BME280;69797;43.864;21.410;2023-05-07T08:10:21;100131.88;;;43.79;20.04
80482;BME280;69797;43.864;21.410;2023-05-07T08:12:49;100116.78;;;43.88;19.49
80482;BME280;69797;43.864;21.410;2023-05-07T08:15:16;100116.25;;;43.76;19.46
80482;BME280;69797;43.864;21.410;2023-05-07T08:17:43;100111.03;;;43.55;19.94
80482;BME280;69797;43.864;21.410;2023-05-07T08:20:10;100121.59;;;43.78;20.08
80482;BME280;69797;43.864;21.410;2023-05-07T08:22:37;100115.34;;;44.12;19.30
80482;BME280;69797;43.864;21.410;2023-05-07T08:25:05;100118.09;;;44.61;19.25
80482;BME280;69797;43.864;21.410;2023-05-07T08:27:31;100113.22;;;44.87;18.90
80482;BME280;69797;43.864;21.410;2023-05-07T08:29:58;100104.75;;;44.80;18.76
80482;BME280;69797;43.864;21.410;2023-05-07T08:32:25;100099.50;;;44.62;19.28
80482;BME280;69797;43.864;21.410;2023-05-07T08:34:54;100117.81;;;44.26;18.43
80482;BME280;69797;43.864;21.410;2023-05-07T08:37:21;100095.63;;;43.62;18.52
80482;BME280;69797;43.864;21.410;2023-05-07T08:39:48;100104.69;;;43.11;19.31
80482;BME280;69797;43.864;21.410;2023-05-07T08:42:16;100094.19;;;43.01;19.00
80482;BME280;69797;43.864;21.410;2023-05-07T08:44:45;100105.31;;;43.19;18.20
80482;BME280;69797;43.864;21.410;2023-05-07T08:47:15;100110.28;;;42.98;18.98
80482;BME280;69797;43.864;21.410;2023-05-07T08:49:42;100107.16;;;42.73;19.27
80482;BME280;69797;43.864;21.410;2023-05-07T08:52:12;100106.09;;;42.43;18.58
80482;BME280;69797;43.864;21.410;2023-05-07T08:54:38;100086.03;;;42.59;19.76
80482;BME280;69797;43.864;21.410;2023-05-07T08:57:05;100106.59;;;42.98;19.17
80482;BME280;69797;43.864;21.410;2023-05-07T08:59:32;100087.91;;;43.06;19.07
80482;BME280;69797;43.864;21.410;2023-05-07T09:01:59;100110.91;;;43.26;18.98
80482;BME280;69797;43.864;21.410;2023-05-07T09:04:27;100092.16;;;43.34;18.76
80482;BME280;69797;43.864;21.410;2023-05-07T09:06:54;100090.22;;;43.31;19.08
80482;BME280;69797;43.864;21.410;2023-05-07T09:09:21;100086.84;;;42.40;19.26
80482;BME280;69797;43.864;21.410;2023-05-07T09:11:48;100095.28;;;40.75;20.46
80482;BME280;69797;43.864;21.410;2023-05-07T09:14:15;100091.25;;;39.49;20.78
80482;BME280;69797;43.864;21.410;2023-05-07T09:16:42;100089.75;;;38.31;20.74
80482;BME280;69797;43.864;21.410;2023-05-07T09:19:09;100067.72;;;36.96;21.49
80482;BME280;69797;43.864;21.410;2023-05-07T09:21:36;100084.66;;;35.84;21.77
80482;BME280;69797;43.864;21.410;2023-05-07T09:24:02;100087.25;;;34.47;23.24
80482;BME280;69797;43.864;21.410;2023-05-07T09:26:29;100080.53;;;33.29;24.50
80482;BME280;69797;43.864;21.410;2023-05-07T09:28:57;100090.25;;;32.47;24.64
80482;BME280;69797;43.864;21.410;2023-05-07T09:31:24;100069.03;;;31.70;25.37
80482;BME280;69797;43.864;21.410;2023-05-07T09:33:54;100084.91;;;31.27;26.43
80482;BME280;69797;43.864;21.410;2023-05-07T09:36:22;100086.38;;;30.77;25.99
80482;BME280;69797;43.864;21.410;2023-05-07T09:38:49;100081.47;;;30.34;27.25
80482;BME280;69797;43.864;21.410;2023-05-07T09:41:18;100074.78;;;29.90;27.75
80482;BME280;69797;43.864;21.410;2023-05-07T09:43:45;100067.97;;;29.42;27.69
80482;BME280;69797;43.864;21.410;2023-05-07T09:46:13;100072.97;;;29.11;28.54
80482;BME280;69797;43.864;21.410;2023-05-07T09:48:43;100066.53;;;28.78;29.11
80482;BME280;69797;43.864;21.410;2023-05-07T09:54:29;100057.28;;;28.35;29.15
80482;BME280;69797;43.864;21.410;2023-05-07T09:56:56;100077.16;;;28.39;29.40
80482;BME280;69797;43.864;21.410;2023-05-07T09:59:24;100075.69;;;28.33;30.03
80482;BME280;69797;43.864;21.410;2023-05-07T10:01:57;100074.72;;;28.29;30.05
80482;BME280;69797;43.864;21.410;2023-05-07T10:04:26;100055.78;;;28.17;29.70
80482;BME280;69797;43.864;21.410;2023-05-07T10:06:56;100056.94;;;28.16;30.13
80482;BME280;69797;43.864;21.410;2023-05-07T10:09:25;100052.53;;;28.06;30.42
80482;BME280;69797;43.864;21.410;2023-05-07T10:11:52;100054.19;;;28.07;29.95
80482;BME280;69797;43.864;21.410;2023-05-07T10:14:21;100059.13;;;28.10;30.33
80482;BME280;69797;43.864;21.410;2023-05-07T10:16:48;100055.72;;;28.05;29.99
80482;BME280;69797;43.864;21.410;2023-05-07T10:19:15;100032.78;;;27.94;30.58
80482;BME280;69797;43.864;21.410;2023-05-07T10:21:48;100037.97;;;27.83;31.99
80482;BME280;69797;43.864;21.410;2023-05-07T10:24:21;100053.69;;;27.84;30.76
80482;BME280;69797;43.864;21.410;2023-05-07T10:26:53;100052.44;;;27.64;31.16
80482;BME280;69797;43.864;21.410;2023-05-07T10:32:39;100056.50;;;27.84;32.18
80482;BME280;69797;43.864;21.410;2023-05-07T10:35:16;100036.00;;;28.05;31.49
80482;BME280;69797;43.864;21.410;2023-05-07T10:37:44;100058.06;;;28.44;30.73
80482;BME280;69797;43.864;21.410;2023-05-07T10:40:12;100047.72;;;28.69;30.91
80482;BME280;69797;43.864;21.410;2023-05-07T10:43:01;100052.84;;;29.01;29.84
80482;BME280;69797;43.864;21.410;2023-05-07T10:45:36;100009.28;;;28.65;30.08
80482;BME280;69797;43.864;21.410;2023-05-07T10:48:12;100050.44;;;28.78;29.37
80482;BME280;69797;43.864;21.410;2023-05-07T10:51:18;100041.59;;;28.26;30.21
80482;BME280;69797;43.864;21.410;2023-05-07T10:53:46;100010.38;;;27.68;30.76
80482;BME280;69797;43.864;21.410;2023-05-07T10:58:46;99993.00;;;27.15;31.38
80482;BME280;69797;43.864;21.410;2023-05-07T11:01:13;100016.94;;;27.21;31.51
80482;BME280;69797;43.864;21.410;2023-05-07T11:04:15;100023.56;;;27.17;32.46
80482;BME280;69797;43.864;21.410;2023-05-07T11:15:04;100018.19;;;26.94;31.82
80482;BME280;69797;43.864;21.410;2023-05-07T11:17:31;100003.81;;;26.87;31.83
80482;BME280;69797;43.864;21.410;2023-05-07T11:20:03;100025.75;;;27.02;32.28
80482;BME280;69797;43.864;21.410;2023-05-07T11:25:03;100005.25;;;27.02;32.77
80482;BME280;69797;43.864;21.410;2023-05-07T11:27:29;100001.63;;;27.01;32.50
80482;BME280;69797;43.864;21.410;2023-05-07T11:29:56;100008.69;;;27.08;32.74
80482;BME280;69797;43.864;21.410;2023-05-07T11:32:30;100002.59;;;27.06;36.14
80482;BME280;69797;43.864;21.410;2023-05-07T11:34:59;100010.22;;;27.05;35.14
80482;BME280;69797;43.864;21.410;2023-05-07T11:37:27;99996.38;;;26.91;33.71
80482;BME280;69797;43.864;21.410;2023-05-07T11:40:06;100003.63;;;26.92;37.25
80482;BME280;69797;43.864;21.410;2023-05-07T11:42:36;99987.78;;;26.79;35.38
80482;BME280;69797;43.864;21.410;2023-05-07T11:45:05;99992.94;;;26.77;33.23
80482;BME280;69797;43.864;21.410;2023-05-07T11:47:33;99986.34;;;26.64;32.53
80482;BME280;69797;43.864;21.410;2023-05-07T11:50:05;99990.19;;;26.60;36.60
80482;BME280;69797;43.864;21.410;2023-05-07T11:52:33;99981.59;;;26.56;31.87
80482;BME280;69797;43.864;21.410;2023-05-07T11:55:01;99982.91;;;26.41;33.86
80482;BME280;69797;43.864;21.410;2023-05-07T11:57:30;99991.81;;;26.43;32.64
80482;BME280;69797;43.864;21.410;2023-05-07T11:59:58;99995.84;;;26.51;33.00
80482;BME280;69797;43.864;21.410;2023-05-07T12:02:25;100001.72;;;26.67;31.97
80482;BME280;69797;43.864;21.410;2023-05-07T12:04:53;100004.88;;;26.57;30.22
80482;BME280;69797;43.864;21.410;2023-05-07T12:07:20;100008.88;;;26.55;31.78
80482;BME280;69797;43.864;21.410;2023-05-07T12:09:47;99993.19;;;26.54;31.51
80482;BME280;69797;43.864;21.410;2023-05-07T12:12:17;99993.16;;;26.63;31.60
80482;BME280;69797;43.864;21.410;2023-05-07T12:14:50;99962.13;;;26.51;30.82
80482;BME280;69797;43.864;21.410;2023-05-07T12:17:17;99972.16;;;26.69;33.51
80482;BME280;69797;43.864;21.410;2023-05-07T12:19:45;99982.16;;;26.88;33.23
80482;BME280;69797;43.864;21.410;2023-05-07T12:22:12;99982.47;;;26.95;32.77
80482;BME280;69797;43.864;21.410;2023-05-07T12:27:11;99954.63;;;26.72;31.18
80482;BME280;69797;43.864;21.410;2023-05-07T12:29:47;99965.72;;;26.69;31.18
80482;BME280;69797;43.864;21.410;2023-05-07T12:32:19;99955.44;;;26.64;33.43
80482;BME280;69797;43.864;21.410;2023-05-07T12:34:50;99976.41;;;26.75;35.23
80482;BME280;69797;43.864;21.410;2023-05-07T12:37:24;99965.72;;;26.69;34.64
80482;BME280;69797;43.864;21.410;2023-05-07T12:40:24;99969.13;;;26.74;32.00
80482;BME280;69797;43.864;21.410;2023-05-07T12:42:53;99959.25;;;26.68;32.87
80482;BME280;69797;43.864;21.410;2023-05-07T12:45:21;99951.88;;;26.55;31.94
80482;BME280;69797;43.864;21.410;2023-05-07T12:47:51;99947.38;;;26.45;32.09
80482;BME280;69797;43.864;21.410;2023-05-07T12:50:20;99927.59;;;26.33;33.05
80482;BME280;69797;43.864;21.410;2023-05-07T12:52:50;99948.56;;;26.36;32.95
80482;BME280;69797;43.864;21.410;2023-05-07T12:55:17;99940.63;;;26.29;33.62
80482;BME280;69797;43.864;21.410;2023-05-07T12:57:50;99920.50;;;26.27;36.45
80482;BME280;69797;43.864;21.410;2023-05-07T13:00:31;99914.06;;;26.18;34.53
80482;BME280;69797;43.864;21.410;2023-05-07T13:02:58;99934.69;;;26.39;35.24
80482;BME280;69797;43.864;21.410;2023-05-07T13:05:25;99929.25;;;26.34;35.67
80482;BME280;69797;43.864;21.410;2023-05-07T13:07:55;99949.38;;;26.45;34.98